Time;durP1;ratioP1;P1;durP2;ratioP2;P2;SDS_P1;SDS_P2;PMS_P1;PMS_P2;Temp;Humidity;BMP_temperature;BMP_pressure;BME280_temperature;BME280_humidity;BME280_pressure;Samples;Min_cycle;Max_cycle;Signal;HPM_P1;HPM_P2
2023/04/05 00:00:31;;;;;;;5.30;3.30;;;;;;;;;;5032177;28;20611;-55
2023/04/05 00:02:59;;;;;;;5.73;3.30;;;;;;;;;;5031763;28;20440;-56
2023/04/05 00:05:29;;;;;;;5.03;3.30;;;;;;;;;;5031902;28;20475;-56
2023/04/05 00:07:55;;;;;;;5.67;3.60;;;;;;;;;;5032197;28;20439;-56
2023/04/05 00:10:21;;;;;;;3.97;3.40;;;;;;;;;;5032025;28;20443;-53
2023/04/05 00:12:47;;;;;;;7.73;4.70;;;;;;;;;;5032157;28;20439;-56
2023/04/05 00:15:13;;;;;;;5.50;4.07;;;;;;;;;;5031977;28;20639;-56
2023/04/05 00:17:42;;;;;;;5.40;4.03;;;;;;;;;;5031896;28;21016;-55
2023/04/05 00:20:10;;;;;;;4.60;3.50;;;;;;;;;;5031830;28;20443;-55
2023/04/05 00:22:37;;;;;;;4.57;3.70;;;;;;;;;;5031801;28;20436;-55
2023/04/05 00:25:03;;;;;;;7.17;3.90;;;;;;;;;;5031836;28;20972;-53
2023/04/05 00:27:29;;;;;;;6.10;3.90;;;;;;;;;;5031802;28;20985;-53
2023/04/05 00:29:55;;;;;;;5.13;4.10;;;;;;;;;;5031724;28;20443;-53
2023/04/05 00:32:21;;;;;;;6.57;3.90;;;;;;;;;;5031658;28;20440;-53
2023/04/05 00:34:49;;;;;;;6.53;3.37;;;;;;;;;;5031481;28;20482;-54
2023/04/05 00:37:15;;;;;;;5.07;3.87;;;;;;;;;;5031690;28;20431;-53
2023/04/05 00:39:41;;;;;;;4.67;2.93;;;;;;;;;;5031493;28;20576;-53
2023/04/05 00:42:08;;;;;;;4.90;3.13;;;;;;;;;;5031533;28;20442;-53
2023/04/05 00:44:34;;;;;;;4.57;3.43;;;;;;;;;;5031283;28;20459;-53
2023/04/05 00:47:01;;;;;;;4.87;3.47;;;;;;;;;;5031536;28;20518;-53
2023/04/05 00:49:27;;;;;;;5.73;3.70;;;;;;;;;;5031380;28;20447;-54
2023/04/05 00:51:54;;;;;;;4.40;3.53;;;;;;;;;;5031358;28;20427;-53
2023/04/05 00:54:20;;;;;;;4.90;3.70;;;;;;;;;;5031344;28;20471;-53
2023/04/05 00:56:46;;;;;;;4.57;3.20;;;;;;;;;;5031302;28;20470;-53
2023/04/05 00:59:12;;;;;;;4.10;3.40;;;;;;;;;;5031279;28;20228;-53
2023/04/05 01:01:39;;;;;;;4.07;3.13;;;;;;;;;;5031214;28;20533;-53
2023/04/05 01:04:06;;;;;;;5.43;3.83;;;;;;;;;;5031290;28;20201;-53
2023/04/05 01:06:44;;;;;;;4.30;3.20;;;;;;;;;;5031466;28;20447;-53
2023/04/05 01:09:17;;;;;;;3.50;2.97;;;;;;;;;;5031271;28;20530;-53
2023/04/05 01:11:44;;;;;;;5.17;3.33;;;;;;;;;;5031252;28;20444;-54
2023/04/05 01:14:10;;;;;;;3.70;2.70;;;;;;;;;;5031115;28;20458;-54
2023/04/05 01:16:36;;;;;;;4.43;2.73;;;;;;;;;;5034751;28;20451;-54
2023/04/05 01:19:03;;;;;;;3.00;2.67;;;;;;;;;;5035061;28;20228;-53
2023/04/05 01:21:38;;;;;;;3.83;2.50;;;;;;;;;;5035052;28;20185;-53
2023/04/05 01:24:11;;;;;;;4.97;2.40;;;;;;;;;;5034926;28;20445;-53
2023/04/05 01:26:46;;;;;;;2.93;2.60;;;;;;;;;;5034799;28;20436;-53
2023/04/05 01:29:27;;;;;;;4.37;2.70;;;;;;;;;;5034870;28;20443;-54
2023/04/05 01:31:58;;;;;;;3.03;2.40;;;;;;;;;;5034791;28;20435;-52
2023/04/05 01:34:29;;;;;;;2.53;2.30;;;;;;;;;;5034526;28;20486;-53
2023/04/05 01:36:56;;;;;;;3.50;2.90;;;;;;;;;;5034680;28;20435;-52
2023/04/05 01:39:24;;;;;;;2.90;2.30;;;;;;;;;;5034674;28;20437;-53
2023/04/05 01:41:50;;;;;;;2.70;2.27;;;;;;;;;;5034447;28;20481;-53
2023/04/05 01:44:16;;;;;;;4.40;2.50;;;;;;;;;;5034561;28;20464;-53
2023/04/05 01:46:42;;;;;;;3.27;2.63;;;;;;;;;;5034487;28;20960;-53
2023/04/05 01:49:09;;;;;;;3.10;2.20;;;;;;;;;;5034439;28;20470;-53
2023/04/05 01:51:40;;;;;;;3.13;2.53;;;;;;;;;;5034292;28;20185;-53
2023/04/05 01:54:06;;;;;;;2.77;2.50;;;;;;;;;;5034328;28;20459;-53
2023/04/05 01:56:32;;;;;;;3.13;2.47;;;;;;;;;;5034175;28;20448;-52
2023/04/05 01:58:58;;;;;;;2.97;2.67;;;;;;;;;;5034131;28;20745;-53
2023/04/05 02:01:24;;;;;;;2.97;2.60;;;;;;;;;;5034204;28;20196;-53
2023/04/05 02:03:50;;;;;;;3.73;2.70;;;;;;;;;;5034099;28;20240;-53
2023/04/05 02:06:17;;;;;;;4.00;2.70;;;;;;;;;;5034142;28;20479;-53
2023/04/05 02:08:43;;;;;;;3.57;2.60;;;;;;;;;;5034112;28;20208;-53
2023/04/05 02:11:10;;;;;;;3.23;2.60;;;;;;;;;;5033904;28;20440;-53
2023/04/05 02:13:36;;;;;;;3.83;2.90;;;;;;;;;;5033732;28;20593;-53
2023/04/05 02:16:02;;;;;;;5.53;2.70;;;;;;;;;;5033839;28;20924;-53
2023/04/05 02:18:31;;;;;;;3.83;3.10;;;;;;;;;;5033869;28;20524;-53
2023/04/05 02:21:01;;;;;;;3.90;2.83;;;;;;;;;;5033828;28;20489;-53
2023/04/05 02:23:29;;;;;;;4.50;2.80;;;;;;;;;;5033811;28;20440;-53
2023/04/05 02:25:55;;;;;;;3.70;3.40;;;;;;;;;;5033033;28;20446;-53
2023/04/05 02:28:21;;;;;;;4.67;3.27;;;;;;;;;;5033324;28;20444;-53
2023/04/05 02:30:47;;;;;;;3.43;3.03;;;;;;;;;;5033471;28;20247;-53
2023/04/05 02:33:13;;;;;;;3.23;2.93;;;;;;;;;;5033790;28;20201;-53
2023/04/05 02:35:39;;;;;;;5.03;3.20;;;;;;;;;;5033561;28;20224;-53
2023/04/05 02:38:05;;;;;;;5.87;3.20;;;;;;;;;;5033875;28;20725;-53
2023/04/05 02:40:33;;;;;;;3.67;2.67;;;;;;;;;;5033662;28;20200;-53
2023/04/05 02:42:59;;;;;;;4.97;3.33;;;;;;;;;;5033848;28;20448;-53
2023/04/05 02:45:26;;;;;;;3.30;3.00;;;;;;;;;;5033373;28;20444;-53
2023/04/05 02:47:52;;;;;;;4.90;2.97;;;;;;;;;;5033683;28;20888;-54
2023/04/05 02:50:19;;;;;;;4.53;2.93;;;;;;;;;;5033416;28;20952;-53
2023/04/05 02:52:46;;;;;;;3.73;3.07;;;;;;;;;;5033434;28;20789;-53
2023/04/05 02:55:12;;;;;;;3.53;2.90;;;;;;;;;;5033368;28;20483;-53
2023/04/05 02:57:40;;;;;;;3.23;2.83;;;;;;;;;;5032932;28;20475;-52
2023/04/05 03:00:07;;;;;;;3.67;3.03;;;;;;;;;;5033270;28;20767;-54
2023/04/05 03:02:33;;;;;;;3.37;3.03;;;;;;;;;;5033119;28;20428;-53
2023/04/05 03:05:01;;;;;;;3.20;2.70;;;;;;;;;;5033171;28;20535;-53
2023/04/05 03:07:27;;;;;;;3.17;2.87;;;;;;;;;;5033175;28;20200;-53
2023/04/05 03:09:53;;;;;;;3.27;2.93;;;;;;;;;;5033009;28;21048;-53
2023/04/05 03:12:19;;;;;;;2.83;2.50;;;;;;;;;;5033200;28;20881;-53
2023/04/05 03:14:46;;;;;;;5.17;2.80;;;;;;;;;;5032906;28;20559;-53
2023/04/05 03:17:12;;;;;;;4.20;2.70;;;;;;;;;;5032825;28;20840;-53
2023/04/05 03:19:38;;;;;;;3.80;3.00;;;;;;;;;;5032794;28;20450;-54
2023/04/05 03:22:04;;;;;;;4.03;2.80;;;;;;;;;;5032871;28;20197;-53
2023/04/05 03:24:31;;;;;;;3.40;2.97;;;;;;;;;;5032887;28;20442;-53
2023/04/05 03:27:01;;;;;;;4.00;2.47;;;;;;;;;;5032807;28;20929;-52
2023/04/05 03:29:27;;;;;;;5.37;3.10;;;;;;;;;;5032628;28;20497;-53
2023/04/05 03:31:54;;;;;;;4.70;2.83;;;;;;;;;;5032568;28;20443;-52
2023/04/05 03:34:21;;;;;;;3.70;2.90;;;;;;;;;;5032443;28;20209;-53
2023/04/05 03:36:48;;;;;;;3.17;2.57;;;;;;;;;;5032504;28;20455;-52
2023/04/05 03:39:14;;;;;;;4.10;2.73;;;;;;;;;;5032430;28;20435;-52
2023/04/05 03:41:40;;;;;;;3.53;2.90;;;;;;;;;;5032304;28;20436;-52
2023/04/05 03:44:07;;;;;;;3.00;2.60;;;;;;;;;;5032408;28;20984;-52
2023/04/05 03:46:33;;;;;;;4.07;2.77;;;;;;;;;;5032405;28;20193;-52
2023/04/05 03:49:00;;;;;;;4.17;2.67;;;;;;;;;;5032419;28;20522;-52
2023/04/05 03:51:27;;;;;;;3.40;2.77;;;;;;;;;;5032191;28;20978;-52
2023/04/05 03:53:53;;;;;;;3.07;2.60;;;;;;;;;;5032135;28;21081;-53
2023/04/05 03:56:19;;;;;;;4.07;3.00;;;;;;;;;;5032000;28;20482;-52
2023/04/05 03:58:45;;;;;;;4.23;3.03;;;;;;;;;;5031915;28;20551;-52
2023/04/05 04:01:11;;;;;;;3.80;2.87;;;;;;;;;;5032241;28;20463;-53
2023/04/05 04:03:38;;;;;;;3.93;3.10;;;;;;;;;;5031984;28;20494;-52
2023/04/05 04:06:06;;;;;;;4.03;3.20;;;;;;;;;;5032058;28;20435;-52
2023/04/05 04:08:32;;;;;;;3.87;3.43;;;;;;;;;;5031876;28;20502;-52
2023/04/05 04:10:58;;;;;;;4.23;2.80;;;;;;;;;;5032093;28;20929;-52
2023/04/05 04:13:24;;;;;;;4.43;3.00;;;;;;;;;;5031978;28;20446;-52
2023/04/05 04:15:50;;;;;;;4.67;3.10;;;;;;;;;;5031570;28;20900;-52
2023/04/05 04:18:16;;;;;;;5.30;3.00;;;;;;;;;;5031911;28;20434;-52
2023/04/05 04:20:42;;;;;;;4.17;3.07;;;;;;;;;;5031784;28;20204;-52
2023/04/05 04:23:09;;;;;;;3.43;2.63;;;;;;;;;;5031962;28;20201;-52
2023/04/05 04:25:36;;;;;;;3.57;2.90;;;;;;;;;;5031663;28;20494;-53
2023/04/05 04:28:02;;;;;;;4.13;2.90;;;;;;;;;;5031779;28;20436;-53
2023/04/05 04:30:28;;;;;;;3.77;3.07;;;;;;;;;;5031768;28;20538;-53
2023/04/05 04:32:55;;;;;;;3.73;3.33;;;;;;;;;;5031561;28;20431;-53
2023/04/05 04:35:23;;;;;;;3.33;2.90;;;;;;;;;;5031778;28;20479;-53
2023/04/05 04:37:52;;;;;;;4.53;3.00;;;;;;;;;;5031510;28;20515;-53
2023/04/05 04:40:19;;;;;;;3.73;3.10;;;;;;;;;;5031724;28;20440;-53
2023/04/05 04:42:45;;;;;;;7.80;3.23;;;;;;;;;;5031610;28;20496;-53
2023/04/05 04:45:12;;;;;;;4.47;3.30;;;;;;;;;;5031585;28;20841;-54
2023/04/05 04:47:38;;;;;;;3.93;3.40;;;;;;;;;;5031669;28;20201;-53
2023/04/05 04:50:05;;;;;;;5.07;3.93;;;;;;;;;;5032937;28;20442;-54
2023/04/05 04:52:31;;;;;;;5.23;3.93;;;;;;;;;;5035633;28;20999;-54
2023/04/05 04:54:58;;;;;;;5.00;3.63;;;;;;;;;;5035576;28;20483;-54
2023/04/05 04:57:26;;;;;;;5.77;3.70;;;;;;;;;;5035268;28;20277;-52
2023/04/05 04:59:52;;;;;;;5.07;3.53;;;;;;;;;;5034822;28;20454;-52
2023/04/05 05:02:18;;;;;;;5.53;3.27;;;;;;;;;;5035277;28;20444;-53
2023/04/05 05:04:44;;;;;;;4.40;3.40;;;;;;;;;;5035449;28;20193;-54
2023/04/05 05:07:10;;;;;;;5.10;3.40;;;;;;;;;;5035367;28;20227;-53
2023/04/05 05:09:36;;;;;;;5.33;3.20;;;;;;;;;;5035466;28;20443;-52
2023/04/05 05:12:02;;;;;;;4.60;3.50;;;;;;;;;;5035315;28;20933;-53
2023/04/05 05:14:29;;;;;;;6.67;3.87;;;;;;;;;;5035160;28;20272;-53
2023/04/05 05:16:57;;;;;;;6.20;3.60;;;;;;;;;;5035078;28;20237;-53
2023/04/05 05:19:24;;;;;;;6.63;4.10;;;;;;;;;;5035125;28;20941;-53
2023/04/05 05:21:52;;;;;;;7.27;4.23;;;;;;;;;;5034979;28;20434;-53
2023/04/05 05:24:17;;;;;;;5.73;3.97;;;;;;;;;;5035105;28;20440;-53
2023/04/05 05:26:43;;;;;;;5.33;3.90;;;;;;;;;;5034958;28;20436;-53
2023/04/05 05:29:09;;;;;;;5.10;3.83;;;;;;;;;;5034866;28;20260;-53
2023/04/05 05:31:38;;;;;;;4.70;3.57;;;;;;;;;;5034766;28;20291;-53
2023/04/05 05:34:05;;;;;;;6.20;3.77;;;;;;;;;;5034853;28;20592;-54
2023/04/05 05:36:31;;;;;;;5.20;3.77;;;;;;;;;;5034876;28;20482;-53
2023/04/05 05:38:57;;;;;;;4.57;3.80;;;;;;;;;;5034743;28;20439;-52
2023/04/05 05:41:23;;;;;;;6.10;3.77;;;;;;;;;;5034683;28;20773;-52
2023/04/05 05:43:49;;;;;;;4.10;3.33;;;;;;;;;;5034454;28;20683;-54
2023/04/05 05:46:16;;;;;;;5.03;3.60;;;;;;;;;;5034725;28;20211;-54
2023/04/05 05:48:43;;;;;;;5.50;3.80;;;;;;;;;;5034576;28;20462;-54
2023/04/05 05:51:09;;;;;;;4.63;3.60;;;;;;;;;;5034486;28;20454;-53
2023/04/05 05:53:36;;;;;;;5.30;3.60;;;;;;;;;;5034348;28;20440;-53
2023/04/05 05:56:02;;;;;;;3.90;3.20;;;;;;;;;;5034264;28;20479;-53
2023/04/05 05:58:28;;;;;;;5.70;3.63;;;;;;;;;;5034241;28;20471;-53
2023/04/05 06:00:55;;;;;;;6.57;3.80;;;;;;;;;;5034123;28;20443;-53
2023/04/05 06:03:21;;;;;;;5.50;3.67;;;;;;;;;;5034349;28;20507;-53
2023/04/05 06:05:51;;;;;;;3.80;3.13;;;;;;;;;;5034131;28;20590;-53
2023/04/05 06:08:17;;;;;;;4.00;3.07;;;;;;;;;;5034163;28;20444;-53
2023/04/05 06:10:43;;;;;;;3.90;3.00;;;;;;;;;;5034156;28;20988;-52
2023/04/05 06:13:09;;;;;;;6.57;3.30;;;;;;;;;;5034071;28;20232;-53
2023/04/05 06:15:35;;;;;;;4.07;3.30;;;;;;;;;;5033908;28;20229;-53
2023/04/05 06:18:01;;;;;;;3.50;3.10;;;;;;;;;;5033979;28;20438;-53
2023/04/05 06:20:27;;;;;;;3.50;3.13;;;;;;;;;;5034015;28;20200;-52
2023/04/05 06:22:55;;;;;;;3.80;3.20;;;;;;;;;;5033858;28;20465;-53
2023/04/05 06:25:21;;;;;;;4.43;3.30;;;;;;;;;;5033858;28;20204;-53
2023/04/05 06:27:47;;;;;;;5.10;3.40;;;;;;;;;;5033831;28;20432;-53
2023/04/05 06:30:13;;;;;;;4.07;3.20;;;;;;;;;;5033942;28;20674;-53
2023/04/05 06:32:39;;;;;;;5.07;3.10;;;;;;;;;;5033859;28;20193;-53
2023/04/05 06:35:06;;;;;;;3.63;2.77;;;;;;;;;;5033670;28;20479;-53
2023/04/05 06:37:32;;;;;;;4.90;3.27;;;;;;;;;;5033621;28;20489;-53
2023/04/05 06:39:59;;;;;;;5.33;4.07;;;;;;;;;;5033818;28;20481;-53
2023/04/05 06:42:25;;;;;;;4.40;4.00;;;;;;;;;;5033570;28;20240;-53
2023/04/05 06:44:51;;;;;;;5.30;3.23;;;;;;;;;;5033306;28;20466;-52
2023/04/05 06:47:17;;;;;;;4.87;3.83;;;;;;;;;;5033475;28;20468;-53
2023/04/05 06:49:43;;;;;;;6.43;4.97;;;;;;;;;;5033383;28;20212;-53
2023/04/05 06:52:09;;;;;;;6.93;4.70;;;;;;;;;;5033384;28;20280;-53
2023/04/05 06:54:37;;;;;;;6.97;6.20;;;;;;;;;;5033204;28;20224;-53
2023/04/05 06:57:05;;;;;;;7.33;4.17;;;;;;;;;;5033242;28;20221;-53
2023/04/05 06:59:31;;;;;;;4.67;3.50;;;;;;;;;;5032977;28;20498;-53
2023/04/05 07:01:57;;;;;;;5.50;3.77;;;;;;;;;;5033322;28;20934;-53
2023/04/05 07:04:23;;;;;;;4.27;3.87;;;;;;;;;;5033079;28;20439;-53
2023/04/05 07:06:49;;;;;;;6.83;3.30;;;;;;;;;;5033007;28;20432;-52
2023/04/05 07:09:15;;;;;;;5.10;3.77;;;;;;;;;;5033105;28;20953;-53
2023/04/05 07:11:41;;;;;;;7.27;3.47;;;;;;;;;;5032936;28;20471;-54
2023/04/05 07:14:09;;;;;;;5.20;3.40;;;;;;;;;;5032608;28;20239;-54
2023/04/05 07:16:35;;;;;;;4.47;3.20;;;;;;;;;;5032717;28;20231;-53
2023/04/05 07:19:01;;;;;;;6.83;3.93;;;;;;;;;;5033000;28;20515;-53
2023/04/05 07:21:27;;;;;;;3.73;2.97;;;;;;;;;;5032947;28;20428;-53
2023/04/05 07:23:54;;;;;;;4.63;3.00;;;;;;;;;;5032688;28;20435;-52
2023/04/05 07:26:21;;;;;;;5.00;3.47;;;;;;;;;;5032652;28;20439;-52
2023/04/05 07:28:47;;;;;;;5.80;3.13;;;;;;;;;;5032561;28;20465;-54
2023/04/05 07:31:15;;;;;;;4.30;3.20;;;;;;;;;;5032702;28;20444;-53
2023/04/05 07:33:41;;;;;;;6.53;3.00;;;;;;;;;;5032561;28;20255;-53
2023/04/05 07:36:07;;;;;;;5.57;3.13;;;;;;;;;;5032479;28;20491;-53
2023/04/05 07:38:33;;;;;;;6.17;3.37;;;;;;;;;;5032292;28;20563;-54
2023/04/05 07:40:59;;;;;;;7.40;3.30;;;;;;;;;;5023629;28;20448;-55
2023/04/05 07:43:25;;;;;;;6.37;3.10;;;;;;;;;;5012580;28;20965;-55
2023/04/05 07:45:52;;;;;;;4.53;3.13;;;;;;;;;;5012588;28;20437;-55
2023/04/05 07:48:19;;;;;;;6.37;3.37;;;;;;;;;;5012401;28;20208;-55
2023/04/05 07:50:46;;;;;;;5.40;2.90;;;;;;;;;;5032122;28;20458;-55
2023/04/05 07:53:12;;;;;;;10.27;2.60;;;;;;;;;;5030422;28;20424;-55
2023/04/05 07:55:38;;;;;;;5.30;2.80;;;;;;;;;;5030292;28;20307;-55
2023/04/05 07:58:04;;;;;;;3.40;2.37;;;;;;;;;;5031694;28;20336;-54
2023/04/05 08:00:30;;;;;;;6.37;2.87;;;;;;;;;;5032233;28;20201;-55
2023/04/05 08:02:56;;;;;;;4.33;2.77;;;;;;;;;;5032736;28;20204;-54
2023/04/05 08:05:24;;;;;;;5.57;2.70;;;;;;;;;;5030133;28;20201;-54
2023/04/05 08:07:50;;;;;;;4.67;2.63;;;;;;;;;;5032200;28;20212;-54
2023/04/05 08:10:16;;;;;;;38.20;27.43;;;;;;;;;;5032314;28;20193;-54
2023/04/05 08:12:42;;;;;;;4.80;3.03;;;;;;;;;;5032034;28;20208;-53
2023/04/05 08:15:08;;;;;;;8.20;6.80;;;;;;;;;;5031971;28;20232;-53
2023/04/05 08:17:34;;;;;;;6.93;5.40;;;;;;;;;;5032241;28;20243;-53
2023/04/05 08:20:00;;;;;;;2.70;1.90;;;;;;;;;;5032343;28;20207;-54
2023/04/05 08:22:28;;;;;;;4.07;2.20;;;;;;;;;;5029759;28;20204;-54
2023/04/05 08:24:54;;;;;;;2.10;1.90;;;;;;;;;;5030563;28;20201;-54
2023/04/05 08:27:20;;;;;;;2.30;1.80;;;;;;;;;;5031664;28;20193;-55
2023/04/05 08:29:46;;;;;;;3.60;2.20;;;;;;;;;;5031467;28;20541;-54
2023/04/05 08:32:12;;;;;;;4.87;2.17;;;;;;;;;;5031524;28;20201;-55
2023/04/05 08:34:38;;;;;;;4.10;2.50;;;;;;;;;;5031203;28;20666;-54
2023/04/05 08:37:04;;;;;;;2.43;2.10;;;;;;;;;;5031346;28;20200;-54
2023/04/05 08:39:34;;;;;;;2.10;1.90;;;;;;;;;;5031394;28;20706;-54
2023/04/05 08:42:03;;;;;;;2.97;2.30;;;;;;;;;;5031483;28;20283;-54
2023/04/05 08:44:30;;;;;;;4.43;2.20;;;;;;;;;;5031213;28;20681;-54
2023/04/05 08:46:57;;;;;;;3.97;2.10;;;;;;;;;;5031116;28;20287;-55
2023/04/05 08:49:23;;;;;;;2.80;2.20;;;;;;;;;;5031073;28;20655;-54
2023/04/05 08:51:49;;;;;;;4.53;2.40;;;;;;;;;;5031129;28;20200;-54
2023/04/05 08:54:16;;;;;;;4.23;2.97;;;;;;;;;;5031440;28;20204;-54
2023/04/05 08:56:46;;;;;;;3.43;2.30;;;;;;;;;;5031082;28;20237;-54
2023/04/05 08:59:12;;;;;;;4.53;2.47;;;;;;;;;;5031341;28;20335;-54
2023/04/05 09:01:41;;;;;;;3.20;2.33;;;;;;;;;;5031393;28;20667;-54
2023/04/05 09:04:10;;;;;;;2.20;1.70;;;;;;;;;;5031614;28;20197;-54
2023/04/05 09:06:37;;;;;;;3.40;2.40;;;;;;;;;;5031388;28;20591;-54
2023/04/05 09:09:06;;;;;;;3.33;2.00;;;;;;;;;;5031512;28;20671;-55
2023/04/05 09:11:32;;;;;;;3.77;2.20;;;;;;;;;;5029841;28;20193;-54
2023/04/05 09:14:02;;;;;;;2.40;2.10;;;;;;;;;;5031421;28;20247;-54
2023/04/05 09:16:28;;;;;;;2.13;1.93;;;;;;;;;;5031486;28;20307;-53
2023/04/05 09:18:54;;;;;;;4.47;2.20;;;;;;;;;;5031260;28;20644;-55
2023/04/05 09:21:22;;;;;;;3.73;2.30;;;;;;;;;;5031125;28;20203;-54
2023/04/05 09:23:52;;;;;;;2.70;1.87;;;;;;;;;;5031061;28;20211;-53
2023/04/05 09:26:20;;;;;;;3.63;2.17;;;;;;;;;;5031006;28;20652;-54
2023/04/05 09:28:46;;;;;;;4.33;2.07;;;;;;;;;;5031116;28;20201;-54
2023/04/05 09:31:27;;;;;;;2.63;1.93;;;;;;;;;;5031205;28;20584;-54
2023/04/05 09:33:56;;;;;;;3.80;1.93;;;;;;;;;;5030815;28;20646;-54
2023/04/05 09:36:22;;;;;;;3.20;2.00;;;;;;;;;;5032896;28;20694;-55
2023/04/05 09:38:48;;;;;;;2.53;1.80;;;;;;;;;;5034647;28;20207;-54
2023/04/05 09:41:14;;;;;;;3.33;2.27;;;;;;;;;;5034815;28;20267;-54
2023/04/05 09:43:41;;;;;;;3.77;2.20;;;;;;;;;;5034441;28;20196;-54
2023/04/05 09:46:15;;;;;;;2.93;2.20;;;;;;;;;;5034580;28;20219;-56
2023/04/05 09:48:48;;;;;;;2.30;1.90;;;;;;;;;;5034532;28;20201;-54
2023/04/05 09:51:15;;;;;;;1.80;1.60;;;;;;;;;;5034737;28;20197;-54
2023/04/05 09:53:57;;;;;;;3.47;2.10;;;;;;;;;;5034437;28;20201;-53
2023/04/05 09:56:23;;;;;;;3.03;2.20;;;;;;;;;;5034358;28;20242;-54
2023/04/05 09:58:50;;;;;;;3.47;1.93;;;;;;;;;;5034036;28;20335;-54
2023/04/05 10:01:16;;;;;;;2.77;2.10;;;;;;;;;;5032523;28;20201;-54
2023/04/05 10:03:46;;;;;;;2.93;2.20;;;;;;;;;;5034322;28;20201;-54
2023/04/05 10:06:12;;;;;;;2.77;2.43;;;;;;;;;;5034400;28;20201;-54
2023/04/05 10:08:40;;;;;;;3.47;2.33;;;;;;;;;;5034190;28;20263;-54
2023/04/05 10:11:06;;;;;;;4.07;1.87;;;;;;;;;;5034400;28;20606;-54
2023/04/05 10:13:32;;;;;;;2.80;2.00;;;;;;;;;;5034353;28;20197;-53
2023/04/05 10:16:00;;;;;;;3.30;2.13;;;;;;;;;;5033984;28;20740;-53
2023/04/05 10:18:29;;;;;;;3.43;2.10;;;;;;;;;;5033887;28;20205;-53
2023/04/05 10:20:57;;;;;;;3.00;2.07;;;;;;;;;;5033750;28;20287;-53
2023/04/05 10:23:25;;;;;;;3.17;2.10;;;;;;;;;;5034040;28;20275;-54
2023/04/05 10:25:55;;;;;;;4.33;2.10;;;;;;;;;;5033736;28;20204;-55
2023/04/05 10:28:26;;;;;;;3.50;2.03;;;;;;;;;;5033993;28;20251;-54
2023/04/05 10:30:57;;;;;;;3.30;2.07;;;;;;;;;;5033815;28;20201;-55
2023/04/05 10:33:26;;;;;;;5.23;1.93;;;;;;;;;;5033884;28;20667;-55
2023/04/05 10:35:59;;;;;;;3.03;2.10;;;;;;;;;;5033804;28;20229;-55
2023/04/05 10:38:26;;;;;;;3.50;2.30;;;;;;;;;;5033712;28;20243;-53
2023/04/05 10:40:55;;;;;;;2.23;1.87;;;;;;;;;;5033566;28;20245;-53
2023/04/05 10:43:22;;;;;;;2.10;1.70;;;;;;;;;;5033548;28;20201;-53
2023/04/05 10:45:51;;;;;;;3.57;1.93;;;;;;;;;;5033469;28;20225;-54
2023/04/05 10:48:21;;;;;;;2.33;1.90;;;;;;;;;;5032594;28;20224;-53
2023/04/05 10:50:47;;;;;;;1.60;1.50;;;;;;;;;;5033428;28;20651;-53
2023/04/05 10:53:13;;;;;;;2.73;1.70;;;;;;;;;;5033613;28;20573;-54
2023/04/05 10:55:39;;;;;;;2.90;1.83;;;;;;;;;;5033119;28;20229;-54
2023/04/05 10:58:07;;;;;;;2.57;1.83;;;;;;;;;;5033292;28;20236;-55
2023/04/05 11:00:33;;;;;;;3.57;2.20;;;;;;;;;;5033193;28;20228;-55
2023/04/05 11:02:59;;;;;;;2.10;1.70;;;;;;;;;;5033225;28;20204;-55
2023/04/05 11:05:30;;;;;;;3.43;2.10;;;;;;;;;;5033187;28;20197;-53
2023/04/05 11:07:59;;;;;;;3.10;1.90;;;;;;;;;;5032962;28;20247;-54
2023/04/05 11:10:26;;;;;;;2.27;2.07;;;;;;;;;;5022607;28;20205;-55
2023/04/05 11:13:15;;;;;;;2.53;1.93;;;;;;;;;;5032713;28;20201;-54
2023/04/05 11:15:43;;;;;;;2.33;1.70;;;;;;;;;;5017417;28;20691;-54
2023/04/05 11:18:10;;;;;;;1.97;1.77;;;;;;;;;;5032838;28;20608;-54
2023/04/05 11:20:40;;;;;;;2.53;1.87;;;;;;;;;;5029065;28;20213;-55
2023/04/05 11:23:06;;;;;;;3.10;1.97;;;;;;;;;;5032745;28;20681;-56
2023/04/05 11:25:37;;;;;;;4.43;1.80;;;;;;;;;;5032999;28;20292;-56
2023/04/05 11:28:04;;;;;;;2.00;1.80;;;;;;;;;;5030955;28;20205;-55
2023/04/05 11:33:53;;;;;;;2.10;1.90;;;;;;;;;;5086274;28;21155;-57
2023/04/05 11:36:30;;;;;;;2.10;1.70;;;;;;;;;;5088769;28;20601;-56
2023/04/05 11:39:11;;;;;;;2.70;2.07;;;;;;;;;;5088743;28;20195;-56
2023/04/05 11:41:37;;;;;;;2.23;1.73;;;;;;;;;;5088445;28;20576;-56
2023/04/05 11:44:04;;;;;;;2.03;1.77;;;;;;;;;;5088987;28;20657;-56
2023/04/05 11:46:32;;;;;;;2.73;1.90;;;;;;;;;;5088940;28;20203;-55
2023/04/05 11:48:59;;;;;;;2.53;1.90;;;;;;;;;;5088545;28;20191;-57
2023/04/05 11:51:27;;;;;;;3.20;1.83;;;;;;;;;;5088661;28;20227;-56
2023/04/05 11:53:54;;;;;;;2.60;1.70;;;;;;;;;;5088525;28;20210;-56
2023/04/05 11:56:20;;;;;;;2.97;2.10;;;;;;;;;;5088487;28;20222;-56
2023/04/05 11:58:46;;;;;;;4.83;1.90;;;;;;;;;;5088616;28;20187;-57
2023/04/05 12:01:12;;;;;;;2.77;1.70;;;;;;;;;;5088660;28;20203;-58
2023/04/05 12:03:38;;;;;;;3.27;1.83;;;;;;;;;;5088487;28;20199;-56
2023/04/05 12:06:06;;;;;;;2.20;1.80;;;;;;;;;;5088394;28;20608;-56
2023/04/05 12:08:39;;;;;;;2.07;1.83;;;;;;;;;;5088364;28;20537;-56
2023/04/05 12:11:06;;;;;;;2.60;1.90;;;;;;;;;;5088100;28;20196;-57
2023/04/05 12:13:34;;;;;;;2.80;2.23;;;;;;;;;;5088308;28;20219;-56
2023/04/05 12:16:01;;;;;;;2.33;1.77;;;;;;;;;;5088310;28;20203;-56
2023/04/05 12:18:27;;;;;;;3.57;2.03;;;;;;;;;;5088226;28;20225;-56
2023/04/05 12:20:53;;;;;;;1.90;1.70;;;;;;;;;;5087980;28;20835;-56
2023/04/05 12:23:21;;;;;;;3.33;1.70;;;;;;;;;;5088027;28;20195;-57
2023/04/05 12:25:48;;;;;;;2.70;1.97;;;;;;;;;;5087914;28;20207;-56
2023/04/05 12:28:14;;;;;;;2.30;1.80;;;;;;;;;;5088072;28;20252;-57
2023/04/05 12:30:47;;;;;;;1.83;1.70;;;;;;;;;;5087778;28;20653;-56
2023/04/05 12:33:13;;;;;;;1.77;1.67;;;;;;;;;;5087728;28;20260;-56
2023/04/05 12:35:40;;;;;;;3.17;2.00;;;;;;;;;;5087714;28;20676;-55
2023/04/05 12:38:06;;;;;;;2.97;2.13;;;;;;;;;;5087750;28;20203;-56
2023/04/05 12:40:34;;;;;;;3.57;2.43;;;;;;;;;;5087779;28;20206;-56
2023/04/05 12:43:01;;;;;;;2.63;2.40;;;;;;;;;;5083820;28;20262;-55
2023/04/05 12:45:28;;;;;;;3.37;2.33;;;;;;;;;;5074134;28;20199;-57
2023/04/05 12:47:56;;;;;;;2.77;2.30;;;;;;;;;;5073843;28;20199;-57
2023/04/05 12:50:25;;;;;;;3.73;2.30;;;;;;;;;;5073978;28;20306;-55
2023/04/05 12:52:55;;;;;;;3.50;2.27;;;;;;;;;;5073836;28;20234;-55
2023/04/05 12:55:21;;;;;;;2.50;1.97;;;;;;;;;;5073995;28;20187;-56
2023/04/05 12:57:50;;;;;;;2.93;1.90;;;;;;;;;;5073845;28;20191;-55
2023/04/05 13:00:16;;;;;;;2.43;1.87;;;;;;;;;;5074024;28;20214;-57
2023/04/05 13:02:42;;;;;;;2.60;1.80;;;;;;;;;;5073707;28;20196;-56
2023/04/05 13:05:09;;;;;;;3.00;1.80;;;;;;;;;;5073941;28;20252;-56
2023/04/05 13:07:35;;;;;;;3.07;2.10;;;;;;;;;;5073703;28;20195;-56
2023/04/05 13:10:01;;;;;;;4.47;2.10;;;;;;;;;;5073753;28;20735;-56
2023/04/05 13:12:27;;;;;;;4.47;2.10;;;;;;;;;;5073660;28;20231;-56
2023/04/05 13:14:54;;;;;;;2.93;2.20;;;;;;;;;;5073503;28;20198;-56
2023/04/05 13:17:20;;;;;;;2.43;1.90;;;;;;;;;;5073573;28;20566;-57
2023/04/05 13:19:46;;;;;;;3.27;2.10;;;;;;;;;;5073438;28;20684;-56
2023/04/05 13:22:12;;;;;;;2.00;1.80;;;;;;;;;;5073783;28;20227;-56
2023/04/05 13:24:38;;;;;;;2.07;1.80;;;;;;;;;;5073305;28;20204;-57
2023/04/05 13:27:04;;;;;;;3.80;2.37;;;;;;;;;;5073069;28;20245;-56
2023/04/05 13:29:30;;;;;;;3.17;2.00;;;;;;;;;;5071512;28;20252;-56
2023/04/05 13:31:58;;;;;;;2.50;1.80;;;;;;;;;;5072881;28;20231;-56
2023/04/05 13:34:24;;;;;;;4.27;1.80;;;;;;;;;;5073165;28;20203;-58
2023/04/05 13:36:50;;;;;;;3.03;1.97;;;;;;;;;;5073088;28;20191;-55
2023/04/05 13:39:16;;;;;;;2.43;1.80;;;;;;;;;;5073003;28;20566;-56
2023/04/05 13:41:42;;;;;;;3.33;2.10;;;;;;;;;;5072990;28;20232;-59
2023/04/05 13:44:08;;;;;;;4.07;2.20;;;;;;;;;;5072951;28;20273;-56
2023/04/05 13:46:34;;;;;;;4.13;1.90;;;;;;;;;;5072740;28;20195;-58
2023/04/05 13:49:01;;;;;;;2.63;1.70;;;;;;;;;;5072740;28;20669;-56
2023/04/05 13:51:33;;;;;;;3.20;1.90;;;;;;;;;;5073041;28;20215;-57
2023/04/05 13:53:59;;;;;;;3.03;2.07;;;;;;;;;;5072856;28;20200;-56
2023/04/05 13:56:25;;;;;;;4.83;2.00;;;;;;;;;;5071783;28;20314;-57
2023/04/05 13:58:51;;;;;;;2.57;1.97;;;;;;;;;;5072511;28;20192;-56
2023/04/05 14:01:17;;;;;;;2.77;1.80;;;;;;;;;;5072301;28;20673;-57
2023/04/05 14:03:43;;;;;;;2.70;2.20;;;;;;;;;;5072697;28;20661;-57
2023/04/05 14:06:10;;;;;;;3.20;2.10;;;;;;;;;;5072447;28;20302;-56
2023/04/05 14:08:36;;;;;;;3.10;2.07;;;;;;;;;;5072386;28;20231;-57
2023/04/05 14:11:02;;;;;;;2.37;1.70;;;;;;;;;;5072286;28;20230;-56
2023/04/05 14:13:28;;;;;;;2.23;1.80;;;;;;;;;;5072285;28;20255;-57
2023/04/05 14:15:54;;;;;;;4.90;2.07;;;;;;;;;;5072202;28;20180;-57
2023/04/05 14:18:20;;;;;;;2.33;2.10;;;;;;;;;;5072224;28;20711;-57
2023/04/05 14:20:46;;;;;;;2.20;1.90;;;;;;;;;;5073588;28;20191;-57
2023/04/05 14:23:14;;;;;;;3.80;2.10;;;;;;;;;;5072380;28;20638;-57
2023/04/05 14:25:40;;;;;;;2.90;2.10;;;;;;;;;;5072194;28;20286;-57
2023/04/05 14:28:06;;;;;;;2.50;2.20;;;;;;;;;;5071950;28;20229;-56
2023/04/05 14:30:32;;;;;;;3.03;2.13;;;;;;;;;;5072326;28;20665;-57
2023/04/05 14:32:58;;;;;;;3.33;2.20;;;;;;;;;;5072074;28;20747;-57
2023/04/05 14:35:24;;;;;;;4.07;2.60;;;;;;;;;;5072322;28;20627;-57
2023/04/05 14:37:50;;;;;;;4.23;2.00;;;;;;;;;;5072044;28;20200;-56
2023/04/05 14:40:17;;;;;;;2.70;2.10;;;;;;;;;;5072392;28;20206;-56
2023/04/05 14:42:43;;;;;;;5.00;2.20;;;;;;;;;;5072138;28;20200;-56
2023/04/05 14:45:10;;;;;;;3.47;2.33;;;;;;;;;;5072141;28;20203;-57